Time;durP1;ratioP1;P1;durP2;ratioP2;P2;SDS_P1;SDS_P2;PMS_P1;PMS_P2;Temp;Humidity;BMP_temperature;BMP_pressure;BME280_temperature;BME280_humidity;BME280_pressure;Samples;Min_cycle;Max_cycle;Signal;HPM_P1;HPM_P2
2023/03/29 00:02:03;;;;;;;12.40;2.60;;;;;;;10.90;88.56;99875.06;5008862;28;20053;-46
2023/03/29 00:04:30;;;;;;;10.45;2.58;;;;;;;10.87;88.70;99882.16;5008801;28;20486;-46
2023/03/29 00:07:03;;;;;;;9.70;2.00;;;;;;;10.88;88.71;99882.94;5008461;28;20562;-49
2023/03/29 00:09:32;;;;;;;22.35;5.82;;;;;;;10.86;88.74;99875.00;5008874;28;20042;-46
2023/03/29 00:12:00;;;;;;;10.95;3.25;;;;;;;10.87;88.94;99870.25;5008853;28;20053;-45
2023/03/29 00:14:29;;;;;;;16.23;3.05;;;;;;;10.86;88.89;99869.47;5008555;28;20046;-48
2023/03/29 00:16:57;;;;;;;13.45;2.30;;;;;;;10.85;89.01;99872.59;5008428;28;20076;-48
2023/03/29 00:19:24;;;;;;;14.90;3.25;;;;;;;10.85;88.90;99867.88;5007308;28;20076;-45
2023/03/29 00:21:51;;;;;;;10.85;2.63;;;;;;;10.85;88.98;99873.41;4990121;28;20042;-50
2023/03/29 00:24:19;;;;;;;15.00;2.22;;;;;;;10.84;89.30;99869.03;5008394;28;20066;-45
2023/03/29 00:26:47;;;;;;;15.13;1.98;;;;;;;10.85;89.12;99869.84;5008053;28;20042;-46
2023/03/29 00:29:13;;;;;;;7.13;2.40;;;;;;;10.86;89.30;99871.41;5008558;28;20444;-46
2023/03/29 00:31:40;;;;;;;16.50;2.30;;;;;;;10.88;89.25;99860.78;5008565;28;20514;-45
2023/03/29 00:34:07;;;;;;;11.52;2.53;;;;;;;10.89;89.38;99863.19;5008345;28;20052;-46
2023/03/29 00:36:33;;;;;;;10.35;2.50;;;;;;;10.90;89.50;99859.25;4998838;28;20065;-45
2023/03/29 00:39:00;;;;;;;9.50;2.65;;;;;;;10.91;89.41;99858.06;4990495;28;20053;-46
2023/03/29 00:41:27;;;;;;;11.80;2.50;;;;;;;10.92;89.43;99850.56;4991180;28;20050;-45
2023/03/29 00:43:59;;;;;;;13.52;3.67;;;;;;;10.95;89.68;99852.59;5007917;28;20504;-48
2023/03/29 00:46:29;;;;;;;14.98;2.75;;;;;;;10.94;89.61;99834.38;5008545;28;20404;-47
2023/03/29 00:49:08;;;;;;;10.32;2.90;;;;;;;10.96;89.72;99832.06;5011744;28;20378;-45
2023/03/29 00:51:40;;;;;;;10.60;2.35;;;;;;;10.97;89.83;99826.13;5011929;28;20069;-46
2023/03/29 00:54:13;;;;;;;13.00;2.20;;;;;;;10.98;89.81;99822.22;4995492;28;20463;-46
2023/03/29 00:56:45;;;;;;;12.38;1.80;;;;;;;10.99;89.71;99817.44;5012308;28;20049;-45
2023/03/29 00:59:17;;;;;;;13.80;3.08;;;;;;;10.98;89.83;99810.31;5011818;28;20073;-46
2023/03/29 01:01:44;;;;;;;;;;;;;;;10.96;89.87;99812.69;5012094;28;20054;-45
2023/03/29 01:04:35;;;;;;;11.25;2.13;;;;;;;10.96;89.93;99815.44;4994099;28;19932;-45
2023/03/29 01:07:17;;;;;;;11.43;2.03;;;;;;;10.96;90.03;99812.69;5011493;28;20506;-46
2023/03/29 01:09:51;;;;;;;11.88;2.53;;;;;;;10.96;90.23;99815.44;5012167;28;20069;-45
2023/03/29 01:12:31;;;;;;;13.25;2.53;;;;;;;10.95;90.17;99824.91;4999715;28;20038;-45
2023/03/29 01:15:11;;;;;;;11.68;3.08;;;;;;;10.94;90.20;99812.22;5011662;28;20049;-45
2023/03/29 01:17:39;;;;;;;11.70;2.55;;;;;;;10.92;90.33;99811.78;5011626;28;20373;-50
2023/03/29 01:20:19;;;;;;;7.18;1.88;;;;;;;10.90;90.54;99820.50;4993798;28;20519;-46
2023/03/29 01:23:26;;;;;;;13.07;2.28;;;;;;;10.88;90.42;99820.03;4995443;28;20077;-45
2023/03/29 01:26:17;;;;;;;9.88;2.22;;;;;;;10.87;90.68;99814.88;5003879;28;20053;-47
2023/03/29 01:28:50;;;;;;;6.13;1.88;;;;;;;10.84;90.50;99810.06;5011806;28;20081;-45
2023/03/29 01:31:31;;;;;;;16.10;2.70;;;;;;;10.81;90.71;99810.81;5011211;28;20054;-47
2023/03/29 01:34:06;;;;;;;17.73;3.08;;;;;;;10.79;90.80;99797.34;5011826;28;20129;-45
2023/03/29 01:36:42;;;;;;;11.65;2.83;;;;;;;10.78;90.79;99784.66;4993736;28;20057;-48
2023/03/29 01:39:08;;;;;;;14.32;3.15;;;;;;;10.78;90.79;99786.63;4993742;28;20054;-45
2023/03/29 01:41:58;;;;;;;15.45;3.53;;;;;;;10.81;90.87;99778.41;5011412;28;20049;-45
2023/03/29 01:44:30;;;;;;;11.00;2.22;;;;;;;10.83;90.59;99780.78;5011650;28;20118;-45
2023/03/29 01:47:28;;;;;;;10.80;2.08;;;;;;;10.84;90.66;99766.59;5011348;28;20569;-45
2023/03/29 01:50:04;;;;;;;9.80;2.13;;;;;;;10.86;90.66;99777.28;5000903;28;20131;-53
2023/03/29 01:52:43;;;;;;;10.65;2.33;;;;;;;10.88;90.56;99786.03;5011750;28;20045;-46
2023/03/29 01:55:17;;;;;;;13.30;2.17;;;;;;;10.90;90.52;99783.69;5010967;28;20152;-45
2023/03/29 01:57:47;;;;;;;12.30;2.90;;;;;;;10.90;90.23;99780.91;5010517;28;20092;-48
2023/03/29 02:00:18;;;;;;;17.25;3.05;;;;;;;10.88;90.31;99774.97;5010822;28;20169;-45
2023/03/29 02:02:46;;;;;;;15.50;2.40;;;;;;;10.86;90.34;99772.53;5011043;28;20508;-45
2023/03/29 02:05:15;;;;;;;16.63;2.50;;;;;;;10.84;90.36;99761.03;5010892;28;20044;-46
2023/03/29 02:07:45;;;;;;;12.13;4.35;;;;;;;10.82;90.49;99757.06;5011143;28;20050;-46
2023/03/29 02:10:13;;;;;;;9.57;2.45;;;;;;;10.80;90.42;99764.94;5010334;28;20038;-51
2023/03/29 02:12:40;;;;;;;14.98;4.25;;;;;;;10.80;90.40;99762.94;5010729;28;20471;-46
2023/03/29 02:15:13;;;;;;;15.68;2.45;;;;;;;10.81;90.38;99747.13;5010301;28;20038;-45
2023/03/29 02:17:42;;;;;;;18.50;3.80;;;;;;;10.80;90.42;99748.31;5010957;28;20519;-46
2023/03/29 02:20:21;;;;;;;14.30;2.67;;;;;;;10.82;90.33;99740.44;5010166;28;20439;-45
2023/03/29 02:23:01;;;;;;;14.95;2.80;;;;;;;10.83;90.09;99731.75;5009015;28;20042;-47
2023/03/29 02:25:28;;;;;;;13.60;3.28;;;;;;;10.85;90.08;99728.63;4999008;28;20053;-45
2023/03/29 02:27:56;;;;;;;13.52;3.10;;;;;;;10.86;90.06;99719.13;4992294;28;20128;-47
2023/03/29 02:30:29;;;;;;;13.10;2.95;;;;;;;10.86;89.95;99725.47;5010233;28;20057;-47
2023/03/29 02:33:14;;;;;;;12.85;3.22;;;;;;;10.85;89.85;99718.34;5010138;28;20048;-45
2023/03/29 02:35:53;;;;;;;25.20;3.47;;;;;;;10.82;89.99;99707.22;5010396;28;20089;-50
2023/03/29 02:38:20;;;;;;;13.00;3.15;;;;;;;10.79;90.09;99702.41;4998137;28;20480;-45
2023/03/29 02:40:47;;;;;;;16.73;4.03;;;;;;;10.74;90.18;99691.66;5009687;28;20381;-46
2023/03/29 02:43:15;;;;;;;11.10;2.80;;;;;;;10.72;90.32;99697.53;5010029;28;20080;-53
2023/03/29 02:45:43;;;;;;;14.15;2.95;;;;;;;10.69;90.90;99705.81;5009875;28;20570;-45
2023/03/29 02:48:16;;;;;;;14.30;3.55;;;;;;;10.66;90.80;99703.78;5009962;28;20128;-45
2023/03/29 02:50:46;;;;;;;26.38;2.88;;;;;;;10.64;91.12;99697.84;5009929;28;21499;-45
2023/03/29 02:53:16;;;;;;;13.73;2.92;;;;;;;10.58;91.10;99696.53;5010281;28;20085;-46
2023/03/29 02:55:45;;;;;;;14.55;3.00;;;;;;;10.56;91.14;99683.09;5009826;28;20111;-45
2023/03/29 02:58:14;;;;;;;14.52;3.22;;;;;;;10.52;91.38;99686.94;5009462;28;20049;-45
2023/03/29 03:00:44;;;;;;;16.27;3.65;;;;;;;10.50;91.51;99679.03;5078164;23;20829;-48
2023/03/29 03:03:12;;;;;;;14.95;3.55;;;;;;;10.49;91.49;99682.13;4989897;28;20057;-47
2023/03/29 03:05:38;;;;;;;29.85;4.55;;;;;;;10.45;91.55;99687.63;4989955;28;20065;-45
2023/03/29 03:08:06;;;;;;;17.73;3.65;;;;;;;10.44;91.74;99688.00;4990037;28;20468;-50
2023/03/29 03:10:34;;;;;;;18.40;4.25;;;;;;;10.42;91.96;99673.72;4989770;28;20046;-45
2023/03/29 03:13:01;;;;;;;23.40;4.00;;;;;;;10.42;91.84;99649.63;4990087;28;20047;-45
2023/03/29 03:15:29;;;;;;;25.10;5.22;;;;;;;10.43;91.94;99644.91;4989478;28;20061;-52
2023/03/29 03:17:56;;;;;;;27.10;6.68;;;;;;;10.42;92.22;99646.06;4990218;28;20537;-45
2023/03/29 03:20:23;;;;;;;23.70;4.63;;;;;;;10.40;92.24;99647.22;4988698;28;20041;-45
2023/03/29 03:22:50;;;;;;;26.77;6.53;;;;;;;10.40;92.32;99627.84;4989454;28;20126;-45
2023/03/29 03:25:19;;;;;;;20.45;3.90;;;;;;;10.39;92.41;99573.69;4989489;28;20043;-46
2023/03/29 03:27:48;;;;;;;15.55;4.07;;;;;;;10.35;92.50;99583.91;4990372;28;20046;-47
2023/03/29 03:30:16;;;;;;;15.90;3.88;;;;;;;10.35;92.57;99596.97;4989565;28;20069;-46
2023/03/29 03:32:43;;;;;;;14.43;3.55;;;;;;;10.34;92.74;99626.59;4989747;28;20065;-46
2023/03/29 03:35:11;;;;;;;23.52;3.80;;;;;;;10.32;92.67;99625.38;4989048;28;20452;-46
2023/03/29 03:37:38;;;;;;;18.35;3.67;;;;;;;10.30;92.72;99622.16;4989236;28;20514;-47
2023/03/29 03:40:07;;;;;;;15.85;3.67;;;;;;;10.30;93.06;99641.50;4971877;28;20042;-45
2023/03/29 03:42:34;;;;;;;19.88;3.90;;;;;;;10.30;93.09;99635.97;4989578;28;20594;-46
2023/03/29 03:45:01;;;;;;;19.83;4.13;;;;;;;10.30;93.36;99641.50;4989356;28;20444;-45
2023/03/29 03:47:28;;;;;;;16.17;3.13;;;;;;;10.31;93.40;99649.47;4989393;28;20145;-44
2023/03/29 03:49:55;;;;;;;21.85;3.10;;;;;;;10.34;93.74;99653.44;4989102;28;20492;-48
2023/03/29 03:52:22;;;;;;;18.92;3.78;;;;;;;10.34;93.44;99648.72;4989334;28;20524;-45
2023/03/29 03:54:49;;;;;;;13.38;2.85;;;;;;;10.37;93.64;99650.75;4989338;28;20088;-45
2023/03/29 03:57:16;;;;;;;12.70;2.78;;;;;;;10.39;93.69;99645.63;4989102;28;20389;-50
2023/03/29 03:59:43;;;;;;;16.38;2.75;;;;;;;10.42;93.84;99641.34;4990015;28;20042;-45
2023/03/29 04:02:09;;;;;;;15.45;2.72;;;;;;;10.43;94.01;99644.91;4988800;28;20408;-45
2023/03/29 04:04:36;;;;;;;16.67;2.30;;;;;;;10.45;94.10;99621.22;4989038;28;20387;-45
2023/03/29 04:07:03;;;;;;;15.57;3.45;;;;;;;10.47;94.12;99601.47;4988990;28;20484;-46
2023/03/29 04:09:32;;;;;;;11.98;2.35;;;;;;;10.49;94.19;99591.63;4989725;28;20050;-46
2023/03/29 04:12:00;;;;;;;13.23;3.35;;;;;;;10.53;94.18;99591.69;4988965;28;20499;-45
2023/03/29 04:14:27;;;;;;;8.52;2.03;;;;;;;10.54;94.10;99598.84;4989025;28;20129;-45
2023/03/29 04:16:54;;;;;;;15.65;3.00;;;;;;;10.54;94.25;99580.22;4989306;28;20045;-45
2023/03/29 04:19:21;;;;;;;15.02;3.55;;;;;;;10.54;94.34;99573.94;4989188;28;20405;-47
2023/03/29 04:21:50;;;;;;;22.10;4.68;;;;;;;10.51;94.51;99580.97;4991685;28;20046;-45
2023/03/29 04:24:16;;;;;;;16.63;4.30;;;;;;;10.47;94.69;99562.72;4992836;28;20488;-48
2023/03/29 04:26:43;;;;;;;21.15;3.78;;;;;;;10.44;95.04;99558.75;4992836;28;20054;-46
2023/03/29 04:29:10;;;;;;;17.15;4.25;;;;;;;10.40;95.25;99569.75;4993114;28;20090;-46
2023/03/29 04:31:37;;;;;;;18.40;4.35;;;;;;;10.36;95.55;99557.84;4975401;28;20043;-45
2023/03/29 04:34:04;;;;;;;13.35;3.60;;;;;;;10.33;95.71;99572.41;4993234;28;20054;-50
2023/03/29 04:36:30;;;;;;;17.48;3.80;;;;;;;10.29;95.89;99568.00;4992703;28;20050;-45
2023/03/29 04:39:00;;;;;;;27.08;4.00;;;;;;;10.25;96.25;99559.66;4993027;28;20579;-45
2023/03/29 04:41:27;;;;;;;22.98;4.55;;;;;;;10.20;96.54;99556.41;4992988;28;20053;-45
2023/03/29 04:43:54;;;;;;;25.70;5.05;;;;;;;10.16;96.95;99548.06;4992330;28;20050;-46
2023/03/29 04:46:25;;;;;;;29.65;6.13;;;;;;;10.13;97.02;99546.03;4992480;28;20063;-45
2023/03/29 04:48:53;;;;;;;17.85;5.13;;;;;;;10.10;97.51;99549.50;4992098;28;20042;-45
2023/03/29 04:51:21;;;;;;;20.33;5.63;;;;;;;10.10;97.65;99548.69;4999544;28;20069;-45
2023/03/29 04:53:49;;;;;;;18.90;4.32;;;;;;;10.09;97.69;99547.91;4997430;28;20043;-44
2023/03/29 04:56:16;;;;;;;29.73;6.47;;;;;;;10.08;97.91;99551.84;4992486;28;20046;-45
2023/03/29 04:58:43;;;;;;;28.00;5.07;;;;;;;10.08;98.03;99551.03;4992099;28;20586;-45
2023/03/29 05:01:10;;;;;;;26.15;4.78;;;;;;;10.07;98.24;99555.78;4992405;28;20594;-48
2023/03/29 05:03:37;;;;;;;30.20;4.90;;;;;;;10.05;98.49;99541.53;4992442;28;20046;-52
2023/03/29 05:06:08;;;;;;;17.13;4.53;;;;;;;10.06;98.59;99536.81;4992246;28;20101;-45
2023/03/29 05:08:38;;;;;;;20.35;3.63;;;;;;;10.05;98.78;99526.91;4992545;28;20043;-45
2023/03/29 05:11:07;;;;;;;21.02;3.55;;;;;;;10.03;98.89;99532.00;4992072;28;20068;-51
2023/03/29 05:13:34;;;;;;;22.27;3.63;;;;;;;10.03;99.16;99537.53;4992209;28;20058;-45
2023/03/29 05:16:03;;;;;;;19.23;3.80;;;;;;;10.01;99.46;99524.06;4991617;28;20435;-46
2023/03/29 05:18:30;;;;;;;19.38;4.57;;;;;;;9.98;99.68;99519.28;4991509;28;20056;-45
2023/03/29 05:20:58;;;;;;;16.23;3.53;;;;;;;9.96;99.77;99518.84;4991986;28;20049;-47
2023/03/29 05:23:27;;;;;;;12.82;3.30;;;;;;;9.92;100.00;99504.19;4991984;28;20381;-45
2023/03/29 05:25:54;;;;;;;11.40;2.70;;;;;;;9.89;99.96;99504.94;4975855;28;20504;-45
2023/03/29 05:28:21;;;;;;;20.48;3.58;;;;;;;9.87;100.00;99510.03;4991761;28;20129;-46
2023/03/29 05:30:59;;;;;;;21.10;2.95;;;;;;;9.86;100.00;99505.66;4991737;28;20044;-45
2023/03/29 05:33:27;;;;;;;10.43;2.88;;;;;;;9.83;100.00;99503.63;4990812;28;20125;-47
2023/03/29 05:36:01;;;;;;;14.15;3.00;;;;;;;9.81;100.00;99497.69;4991559;28;20492;-45
2023/03/29 05:38:29;;;;;;;17.70;3.60;;;;;;;9.82;100.00;99488.25;4991900;28;20046;-47
2023/03/29 05:40:56;;;;;;;21.90;5.05;;;;;;;9.79;100.00;99477.91;4991596;28;20380;-46
2023/03/29 05:43:23;;;;;;;15.25;3.90;;;;;;;9.79;100.00;99477.91;4992026;28;20121;-44
2023/03/29 05:45:55;;;;;;;20.70;7.47;;;;;;;9.77;100.00;99466.41;4991596;28;20034;-45
2023/03/29 05:48:22;;;;;;;21.10;5.78;;;;;;;9.77;100.00;99458.13;4991870;28;20038;-44
2023/03/29 05:50:51;;;;;;;14.32;4.18;;;;;;;9.76;100.00;99451.00;4991275;28;20129;-45
2023/03/29 05:53:18;;;;;;;18.33;4.13;;;;;;;9.74;100.00;99462.41;4991428;28;20042;-50
2023/03/29 05:55:46;;;;;;;16.25;4.20;;;;;;;9.75;100.00;99460.47;4991764;28;20141;-48
2023/03/29 05:58:14;;;;;;;23.40;4.90;;;;;;;9.77;100.00;99452.59;4991788;28;20061;-45
2023/03/29 06:00:41;;;;;;;16.17;4.55;;;;;;;9.77;100.00;99452.59;4997507;28;20065;-47
2023/03/29 06:03:18;;;;;;;20.55;4.60;;;;;;;9.76;100.00;99460.09;4973999;28;20050;-45
2023/03/29 06:05:58;;;;;;;19.23;5.38;;;;;;;9.78;100.00;99468.03;4991201;28;20105;-44
2023/03/29 06:08:26;;;;;;;24.15;8.60;;;;;;;9.78;100.00;99474.34;4991618;28;20141;-46
2023/03/29 06:11:09;;;;;;;25.70;5.60;;;;;;;9.79;100.00;99464.09;4973770;28;20046;-45
2023/03/29 06:13:37;;;;;;;17.85;4.13;;;;;;;9.77;100.00;99464.44;4990862;28;20130;-45
2023/03/29 06:16:12;;;;;;;12.93;3.72;;;;;;;9.79;100.00;99466.88;4991455;28;20050;-46
2023/03/29 06:18:39;;;;;;;16.42;3.75;;;;;;;9.81;100.00;99470.03;4990927;28;20050;-46
2023/03/29 06:21:08;;;;;;;22.70;5.90;;;;;;;9.85;100.00;99470.09;4991249;28;20035;-44
2023/03/29 06:23:35;;;;;;;14.93;4.95;;;;;;;9.88;100.00;99453.56;4989429;28;20431;-46
2023/03/29 06:26:02;;;;;;;18.10;2.63;;;;;;;9.93;100.00;99456.00;4990752;28;20776;-44
2023/03/29 06:28:29;;;;;;;11.50;2.83;;;;;;;9.96;100.00;99458.03;4978067;28;20412;-47
2023/03/29 06:31:00;;;;;;;12.98;2.30;;;;;;;10.01;100.00;99460.47;4990651;28;20129;-45
2023/03/29 06:33:29;;;;;;;5.55;1.67;;;;;;;10.06;100.00;99449.09;4991059;28;20048;-45
2023/03/29 06:35:56;;;;;;;10.40;2.05;;;;;;;10.09;100.00;99448.34;4973032;28;20061;-45
2023/03/29 06:38:25;;;;;;;6.60;2.58;;;;;;;10.14;100.00;99437.00;4990533;28;20051;-53
2023/03/29 06:41:00;;;;;;;14.82;3.53;;;;;;;10.19;100.00;99428.38;4990283;28;20403;-50
2023/03/29 06:43:28;;;;;;;7.65;1.95;;;;;;;10.23;100.00;99432.00;4990453;28;20054;-45
2023/03/29 06:45:55;;;;;;;6.50;2.05;;;;;;;10.27;100.00;99418.22;4989433;28;20083;-47
2023/03/29 06:48:21;;;;;;;10.30;1.70;;;;;;;10.28;100.00;99420.59;4990500;28;20549;-45
2023/03/29 06:50:48;;;;;;;6.38;1.27;;;;;;;10.30;100.00;99412.72;4990587;28;20056;-45
2023/03/29 06:53:15;;;;;;;5.47;1.20;;;;;;;10.31;100.00;99406.00;4990318;28;20088;-50
2023/03/29 06:55:42;;;;;;;5.22;1.00;;;;;;;10.31;100.00;99406.00;4990392;28;20439;-46
2023/03/29 06:58:09;;;;;;;6.30;2.33;;;;;;;10.31;100.00;99392.19;4990073;28;20100;-45
2023/03/29 07:00:38;;;;;;;2.58;1.23;;;;;;;10.31;100.00;99372.81;4989526;28;20046;-45
2023/03/29 07:03:06;;;;;;;7.65;1.80;;;;;;;10.31;100.00;99383.88;4990167;28;20042;-46
2023/03/29 07:05:35;;;;;;;5.38;0.95;;;;;;;10.30;100.00;99379.53;4989882;28;20093;-46
2023/03/29 07:10:37;;;;;;;4.65;0.88;;;;;;;10.29;100.00;99368.84;4990135;28;20429;-49
2023/03/29 07:13:05;;;;;;;3.13;1.05;;;;;;;10.29;100.00;99369.66;4989824;28;20500;-54
2023/03/29 07:15:32;;;;;;;5.55;1.00;;;;;;;10.29;100.00;99369.66;4989887;28;20419;-45
2023/03/29 07:18:01;;;;;;;7.78;1.17;;;;;;;10.30;100.00;99353.81;4989478;28;20484;-52
2023/03/29 07:20:28;;;;;;;3.92;0.63;;;;;;;10.29;100.00;99350.28;4989861;28;20101;-45
2023/03/29 07:22:54;;;;;;;4.93;1.00;;;;;;;10.31;100.00;99347.13;4990172;28;20085;-45
2023/03/29 07:25:22;;;;;;;2.92;0.90;;;;;;;10.31;100.00;99347.13;4990054;28;20057;-44
2023/03/29 07:27:51;;;;;;;3.05;0.57;;;;;;;10.30;100.00;99354.63;4989690;28;20400;-45
2023/03/29 07:30:22;;;;;;;3.30;0.75;;;;;;;10.29;100.00;99344.75;4989908;28;20048;-47
2023/03/29 07:32:51;;;;;;;2.95;0.90;;;;;;;10.29;100.00;99358.56;4989757;28;20042;-45
2023/03/29 07:35:17;;;;;;;4.95;0.73;;;;;;;10.31;100.00;99355.41;4989785;28;20050;-45
2023/03/29 07:37:45;;;;;;;0.45;0.22;;;;;;;10.33;100.00;99348.34;4989184;28;20069;-47
2023/03/29 07:40:17;;;;;;;2.90;0.40;;;;;;;10.36;100.00;99341.25;4989402;28;20047;-44
2023/03/29 07:42:45;;;;;;;5.55;0.85;;;;;;;10.42;100.00;99339.75;4989808;28;20070;-45
2023/03/29 07:45:14;;;;;;;4.57;0.60;;;;;;;10.46;100.00;99331.50;4989469;28;20117;-45
2023/03/29 07:47:43;;;;;;;5.50;0.77;;;;;;;10.50;100.00;99312.94;4989596;28;20046;-47
2023/03/29 07:50:11;;;;;;;6.68;2.05;;;;;;;10.53;100.00;99323.25;4989422;28;20050;-45
2023/03/29 07:52:38;;;;;;;9.75;3.22;;;;;;;10.56;100.00;99322.50;4989304;28;20054;-45
2023/03/29 07:55:07;;;;;;;4.95;1.20;;;;;;;10.57;100.00;99313.00;4988930;28;20068;-45
2023/03/29 07:57:34;;;;;;;6.35;1.80;;;;;;;10.56;100.00;99316.97;4985202;28;20516;-46
2023/03/29 08:00:14;;;;;;;5.00;1.95;;;;;;;10.52;100.00;99310.59;4996307;28;20116;-47
2023/03/29 08:02:43;;;;;;;5.35;1.80;;;;;;;10.46;100.00;99331.50;4977550;28;20066;-50
2023/03/29 08:05:11;;;;;;;4.60;1.77;;;;;;;10.40;100.00;99315.22;4988945;28;20525;-45
2023/03/29 08:07:40;;;;;;;3.80;1.48;;;;;;;10.37;100.00;99316.00;4988948;28;20054;-45
2023/03/29 08:10:12;;;;;;;4.78;1.60;;;;;;;10.34;100.00;99304.88;4989092;28;20129;-46
2023/03/29 08:12:39;;;;;;;4.82;1.75;;;;;;;10.32;100.00;99301.69;4989328;28;20050;-45
2023/03/29 08:15:07;;;;;;;4.93;1.20;;;;;;;10.32;100.00;99274.84;4989214;28;20042;-45
2023/03/29 08:17:35;;;;;;;7.95;2.10;;;;;;;10.31;100.00;99283.50;4989067;28;20046;-46
2023/03/29 08:20:04;;;;;;;4.57;1.30;;;;;;;10.32;100.00;99277.59;4988881;28;20038;-44
2023/03/29 08:22:33;;;;;;;4.25;2.30;;;;;;;10.32;100.00;99258.25;4989192;28;20082;-51
2023/03/29 08:24:59;;;;;;;2.50;1.05;;;;;;;10.34;100.00;99261.41;4988959;28;20043;-45
2023/03/29 08:27:26;;;;;;;7.78;1.25;;;;;;;10.39;100.00;99257.50;4988687;28;20582;-48
2023/03/29 08:29:53;;;;;;;3.30;1.17;;;;;;;10.43;100.00;99246.47;4989069;28;20057;-45
2023/03/29 08:32:20;;;;;;;5.30;1.15;;;;;;;10.42;100.00;99245.69;4989541;28;20117;-45
2023/03/29 08:34:47;;;;;;;5.40;1.35;;;;;;;10.43;100.00;99222.38;4971440;28;20069;-52
2023/03/29 08:37:13;;;;;;;1.90;1.00;;;;;;;10.43;100.00;99222.38;4988738;28;20129;-45
2023/03/29 08:39:40;;;;;;;5.57;1.05;;;;;;;10.44;100.00;99206.56;4988693;28;20051;-45
2023/03/29 08:42:25;;;;;;;3.50;1.23;;;;;;;10.45;100.00;99210.94;4988686;28;20060;-49
2023/03/29 08:44:58;;;;;;;3.65;1.73;;;;;;;10.49;100.00;99217.28;4988956;28;20046;-48
2023/03/29 08:47:43;;;;;;;1.63;0.77;;;;;;;10.53;100.00;99221.69;4988892;28;20054;-46
2023/03/29 08:50:12;;;;;;;5.13;1.20;;;;;;;10.54;100.00;99225.25;4989607;28;20146;-46
2023/03/29 08:52:45;;;;;;;2.35;0.80;;;;;;;10.59;100.00;99205.53;4988360;28;20093;-45
2023/03/29 08:55:41;;;;;;;4.75;1.33;;;;;;;10.61;100.00;99208.69;4988861;28;20068;-45
2023/03/29 08:58:16;;;;;;;2.97;0.93;;;;;;;10.57;100.00;99197.59;4988791;28;20400;-46
2023/03/29 09:00:54;;;;;;;1.73;0.70;;;;;;;10.56;100.00;99200.75;4988476;28;20126;-50
2023/03/29 09:03:33;;;;;;;1.38;0.50;;;;;;;10.53;100.00;99195.97;4988755;28;20046;-45
2023/03/29 09:06:06;;;;;;;1.85;0.77;;;;;;;10.51;100.00;99181.75;4989444;28;20067;-51
2023/03/29 09:08:53;;;;;;;0.65;0.45;;;;;;;10.50;100.00;99163.53;4990838;28;20146;-49
2023/03/29 09:11:23;;;;;;;1.27;0.75;;;;;;;10.47;100.00;99148.50;4992552;28;20066;-45
2023/03/29 09:13:56;;;;;;;7.78;0.98;;;;;;;10.47;100.00;99139.41;4992756;28;20062;-48
2023/03/29 09:16:23;;;;;;;4.10;0.75;;;;;;;10.46;100.00;99135.81;4992186;28;20046;-47
2023/03/29 09:19:08;;;;;;;1.23;0.50;;;;;;;10.47;100.00;99142.16;4992337;28;20054;-44
2023/03/29 09:21:55;;;;;;;8.23;0.80;;;;;;;10.46;100.00;99146.91;4991881;28;20129;-45
2023/03/29 09:24:51;;;;;;;1.77;0.70;;;;;;;10.45;100.00;99141.75;4991838;28;20057;-45
2023/03/29 09:27:27;;;;;;;2.42;0.70;;;;;;;10.42;100.00;99148.06;4982428;28;20600;-45
2023/03/29 09:30:24;;;;;;;3.28;0.75;;;;;;;10.42;100.00;99131.44;4992126;28;20042;-45
2023/03/29 09:33:13;;;;;;;3.88;1.25;;;;;;;10.45;100.00;99128.72;4991878;28;20046;-45
2023/03/29 09:35:46;;;;;;;2.47;0.80;;;;;;;10.47;100.00;99126.34;4991803;28;20394;-46
2023/03/29 09:38:14;;;;;;;2.63;0.73;;;;;;;10.51;100.00;99135.47;4992040;28;20062;-45
2023/03/29 09:40:50;;;;;;;0.80;0.63;;;;;;;10.56;100.00;99134.34;4992292;28;20054;-45
2023/03/29 09:43:25;;;;;;;3.88;0.63;;;;;;;10.63;100.00;99123.31;4979891;28;20053;-45
2023/03/29 09:45:56;;;;;;;2.17;1.25;;;;;;;10.67;100.00;99127.69;4991498;28;20054;-45
2023/03/29 09:48:25;;;;;;;2.50;0.70;;;;;;;10.67;100.00;99124.16;4991559;28;20042;-48
2023/03/29 09:50:53;;;;;;;3.80;0.95;;;;;;;10.67;100.00;99110.31;4991331;28;20055;-48
2023/03/29 09:53:20;;;;;;;1.85;0.77;;;;;;;10.67;100.00;99090.94;4991811;28;20459;-45
2023/03/29 09:55:49;;;;;;;4.07;1.17;;;;;;;10.66;100.00;99078.25;4991211;28;20145;-44
2023/03/29 09:58:21;;;;;;;4.95;1.15;;;;;;;10.64;100.00;99088.94;4991975;28;20046;-45
2023/03/29 10:00:48;;;;;;;4.32;1.38;;;;;;;10.61;100.00;99079.44;4990780;28;20050;-45
2023/03/29 10:03:29;;;;;;;6.50;1.20;;;;;;;10.58;100.00;99066.34;4991177;28;20078;-45
2023/03/29 10:06:00;;;;;;;2.83;1.40;;;;;;;10.60;100.00;99052.13;4991657;28;20054;-45
2023/03/29 10:08:58;;;;;;;4.82;0.82;;;;;;;10.61;100.00;99042.66;4990822;28;20117;-45
2023/03/29 10:11:33;;;;;;;1.52;1.00;;;;;;;10.61;100.00;99053.72;4971624;28;20547;-51
2023/03/29 10:14:05;;;;;;;4.85;1.38;;;;;;;10.62;100.00;99049.75;4994627;28;20049;-44
2023/03/29 10:16:40;;;;;;;2.22;0.82;;;;;;;10.63;100.00;99049.38;4992872;28;20054;-45
2023/03/29 10:19:27;;;;;;;4.40;1.10;;;;;;;10.65;100.00;99046.22;4991106;28;20054;-44
2023/03/29 10:21:59;;;;;;;6.82;1.52;;;;;;;10.68;100.00;99048.22;4990806;28;20049;-45
2023/03/29 10:24:27;;;;;;;7.47;1.30;;;;;;;10.70;100.00;99048.63;4991103;28;20046;-44
2023/03/29 10:26:58;;;;;;;3.17;1.20;;;;;;;10.72;100.00;99033.22;4990994;28;20046;-44
2023/03/29 10:29:26;;;;;;;5.32;1.23;;;;;;;10.76;100.00;99036.00;4990661;28;20054;-44
2023/03/29 10:31:53;;;;;;;3.85;0.63;;;;;;;10.78;100.00;99041.94;4991221;28;20064;-46
2023/03/29 10:34:24;;;;;;;4.72;0.90;;;;;;;10.79;100.00;99033.28;4990678;28;20047;-44
2023/03/29 10:36:58;;;;;;;4.60;0.98;;;;;;;10.80;100.00;99032.06;4973228;28;20178;-44
2023/03/29 10:39:32;;;;;;;1.63;0.73;;;;;;;10.82;100.00;99026.16;4973392;28;20046;-46
2023/03/29 10:42:02;;;;;;;4.10;1.27;;;;;;;10.81;100.00;99036.44;4990685;28;20043;-45
2023/03/29 10:44:31;;;;;;;3.75;1.15;;;;;;;10.80;100.00;99029.28;4990137;28;20046;-44
2023/03/29 10:47:19;;;;;;;6.80;1.02;;;;;;;10.79;100.00;99029.69;4990559;28;20050;-44
2023/03/29 10:49:52;;;;;;;6.22;1.08;;;;;;;10.77;100.00;99026.53;4990937;28;20529;-45
2023/03/29 10:52:22;;;;;;;8.57;1.45;;;;;;;10.77;100.00;99021.00;4990208;28;20377;-46
2023/03/29 10:54:51;;;;;;;5.03;1.25;;;;;;;10.75;100.00;99013.06;4990709;28;20049;-44
2023/03/29 10:57:29;;;;;;;7.20;1.30;;;;;;;10.74;100.00;99016.22;4990269;28;20042;-44
2023/03/29 11:00:17;;;;;;;2.13;0.75;;;;;;;10.73;100.00;99017.41;4990208;28;20108;-45
2023/03/29 11:03:10;;;;;;;6.13;1.00;;;;;;;10.72;100.00;99004.75;4956482;28;20074;-44
2023/03/29 11:05:51;;;;;;;6.45;0.98;;;;;;;10.73;100.00;99009.91;4962722;28;20055;-45
2023/03/29 11:08:34;;;;;;;3.38;1.30;;;;;;;10.75;100.00;99009.53;4989733;28;20125;-53
2023/03/29 11:11:09;;;;;;;6.63;1.30;;;;;;;10.77;100.00;99007.16;4989736;28;20054;-44
2023/03/29 11:14:04;;;;;;;6.18;1.33;;;;;;;10.78;100.00;98987.38;4989566;28;20064;-44
2023/03/29 11:16:48;;;;;;;3.85;1.85;;;;;;;10.82;100.00;99004.00;4989611;28;20385;-53
2023/03/29 11:19:18;;;;;;;7.07;1.42;;;;;;;10.85;100.00;99003.25;4989837;28;20052;-45
2023/03/29 11:21:58;;;;;;;8.15;1.55;;;;;;;10.87;100.00;99001.66;4989822;28;20068;-50
2023/03/29 11:24:56;;;;;;;3.83;1.88;;;;;;;10.92;100.00;99000.50;4989757;28;20054;-45
2023/03/29 11:27:37;;;;;;;7.88;1.55;;;;;;;10.94;100.00;99007.22;4981053;28;20050;-44
2023/03/29 11:30:07;;;;;;;6.55;1.88;;;;;;;10.97;100.00;99005.66;4988028;28;20054;-47
2023/03/29 11:33:01;;;;;;;7.00;1.38;;;;;;;11.03;100.00;99015.19;4989770;28;20740;-46
2023/03/29 11:35:33;;;;;;;8.68;1.65;;;;;;;11.11;100.00;99010.44;4983324;28;20054;-44
2023/03/29 11:38:05;;;;;;;5.87;2.10;;;;;;;11.16;100.00;99015.59;4988705;28;20125;-45
2023/03/29 11:41:19;;;;;;;1.95;1.00;;;;;;;11.20;100.00;98997.81;4990319;28;20053;-45
2023/03/29 11:43:55;;;;;;;2.30;1.42;;;;;;;11.23;100.00;99002.56;4980946;28;20058;-46
2023/03/29 11:46:33;;;;;;;5.30;2.55;;;;;;;11.30;100.00;98996.28;4989764;28;20047;-44
2023/03/29 11:49:31;;;;;;;4.80;1.20;;;;;;;11.39;100.00;98994.69;4989525;28;20554;-44
2023/03/29 11:52:22;;;;;;;4.78;1.98;;;;;;;11.46;100.00;98985.63;4988454;28;20153;-47